首页
METAR-TAF:

METAR-TAF

机场 :

Alpnach, 瑞士

纬度: 46-56-19N, 经度: 8-17-03E, 海拔: 440米

当前天气观测

该预报发布于29分钟前的18:20 UTC
静风
温度 4°C
湿度 87%
气压 1023 hPa
能见度10公里或以上
多云层高于4900英尺
阴天层高于6700英尺
小雨

METAR: LSMA 171820Z AUTO 00000KT 9999NDV -RA BKN049 OVC067 04/02 Q1023 RMK

时间: 19:49 (18:49 UTC)


TAF: 丢失

超过4000个机场的气象观测和天气预报(METAR&TAF报告)。

可查询的气象台以黄色和红色小点在地图上表示。

将鼠标移到小点上方,可查看气象台名称。

然后点击查看天气观测和预报。

如需切换地图:点击带黑十字的绿色按钮放大地图;点击带横线的绿色按钮缩小地图;或者点击绿色箭头查看邻近地区的地图。


METAR-TAF: